sensor_id;sensor_type;location;lat;lon;timestamp;P1;durP1;ratioP1;P2;durP2;ratioP2
16199;SDS011;8207;52.494;4.654;2023-04-06T00:01:14;35.70;;;22.57;;
16199;SDS011;8207;52.494;4.654;2023-04-06T00:03:41;33.27;;;21.37;;
16199;SDS011;8207;52.494;4.654;2023-04-06T00:06:08;36.97;;;22.67;;
16199;SDS011;8207;52.494;4.654;2023-04-06T00:08:35;33.13;;;19.90;;
16199;SDS011;8207;52.494;4.654;2023-04-06T00:11:02;35.67;;;20.53;;
16199;SDS011;8207;52.494;4.654;2023-04-06T00:13:29;40.60;;;22.23;;
16199;SDS011;8207;52.494;4.654;2023-04-06T00:15:57;34.47;;;20.37;;
16199;SDS011;8207;52.494;4.654;2023-04-06T00:18:24;37.43;;;20.97;;
16199;SDS011;8207;52.494;4.654;2023-04-06T00:20:51;31.00;;;18.87;;
16199;SDS011;8207;52.494;4.654;2023-04-06T00:23:18;32.03;;;21.93;;
16199;SDS011;8207;52.494;4.654;2023-04-06T00:25:45;32.60;;;20.20;;
16199;SDS011;8207;52.494;4.654;2023-04-06T00:28:12;30.80;;;19.10;;
16199;SDS011;8207;52.494;4.654;2023-04-06T00:30:39;29.60;;;19.67;;
16199;SDS011;8207;52.494;4.654;2023-04-06T00:33:07;29.20;;;19.00;;
16199;SDS011;8207;52.494;4.654;2023-04-06T00:35:34;30.00;;;18.77;;
16199;SDS011;8207;52.494;4.654;2023-04-06T00:38:01;27.50;;;17.93;;
16199;SDS011;8207;52.494;4.654;2023-04-06T00:40:28;28.63;;;17.40;;
16199;SDS011;8207;52.494;4.654;2023-04-06T00:42:56;29.27;;;18.53;;
16199;SDS011;8207;52.494;4.654;2023-04-06T00:45:23;22.33;;;15.80;;
16199;SDS011;8207;52.494;4.654;2023-04-06T00:47:49;27.13;;;17.20;;
16199;SDS011;8207;52.494;4.654;2023-04-06T00:50:18;27.33;;;17.00;;
16199;SDS011;8207;52.494;4.654;2023-04-06T00:52:45;25.87;;;16.03;;
16199;SDS011;8207;52.494;4.654;2023-04-06T00:55:12;25.53;;;17.47;;
16199;SDS011;8207;52.494;4.654;2023-04-06T00:57:39;23.90;;;16.33;;
16199;SDS011;8207;52.494;4.654;2023-04-06T01:00:07;25.80;;;16.53;;
16199;SDS011;8207;52.494;4.654;2023-04-06T01:02:35;23.37;;;15.43;;
16199;SDS011;8207;52.494;4.654;2023-04-06T01:05:02;22.67;;;15.93;;
16199;SDS011;8207;52.494;4.654;2023-04-06T01:07:30;24.43;;;15.37;;
16199;SDS011;8207;52.494;4.654;2023-04-06T01:09:57;20.90;;;15.60;;
16199;SDS011;8207;52.494;4.654;2023-04-06T01:12:24;21.13;;;15.27;;
16199;SDS011;8207;52.494;4.654;2023-04-06T01:14:51;23.97;;;15.57;;
16199;SDS011;8207;52.494;4.654;2023-04-06T01:17:18;21.13;;;14.30;;
16199;SDS011;8207;52.494;4.654;2023-04-06T01:19:45;20.23;;;13.00;;
16199;SDS011;8207;52.494;4.654;2023-04-06T01:22:16;21.77;;;15.30;;
16199;SDS011;8207;52.494;4.654;2023-04-06T01:24:43;20.93;;;14.27;;
16199;SDS011;8207;52.494;4.654;2023-04-06T01:27:11;22.50;;;14.97;;
16199;SDS011;8207;52.494;4.654;2023-04-06T01:29:38;18.60;;;13.53;;
16199;SDS011;8207;52.494;4.654;2023-04-06T01:32:06;20.00;;;13.97;;
16199;SDS011;8207;52.494;4.654;2023-04-06T01:34:34;18.87;;;13.80;;
16199;SDS011;8207;52.494;4.654;2023-04-06T01:37:01;19.57;;;14.20;;
16199;SDS011;8207;52.494;4.654;2023-04-06T01:39:30;20.47;;;13.97;;
16199;SDS011;8207;52.494;4.654;2023-04-06T01:41:57;21.83;;;13.53;;
16199;SDS011;8207;52.494;4.654;2023-04-06T01:44:23;20.10;;;13.10;;
16199;SDS011;8207;52.494;4.654;2023-04-06T01:46:50;18.23;;;13.27;;
16199;SDS011;8207;52.494;4.654;2023-04-06T01:49:17;23.40;;;14.70;;
16199;SDS011;8207;52.494;4.654;2023-04-06T01:51:44;19.43;;;13.33;;
16199;SDS011;8207;52.494;4.654;2023-04-06T01:54:11;19.97;;;13.93;;
16199;SDS011;8207;52.494;4.654;2023-04-06T01:56:40;21.77;;;13.30;;
16199;SDS011;8207;52.494;4.654;2023-04-06T01:59:07;19.97;;;13.10;;
16199;SDS011;8207;52.494;4.654;2023-04-06T02:01:34;21.90;;;13.87;;
16199;SDS011;8207;52.494;4.654;2023-04-06T02:04:01;20.80;;;12.77;;
16199;SDS011;8207;52.494;4.654;2023-04-06T02:06:27;18.13;;;12.37;;
16199;SDS011;8207;52.494;4.654;2023-04-06T02:08:55;18.50;;;11.60;;
16199;SDS011;8207;52.494;4.654;2023-04-06T02:11:22;21.73;;;12.27;;
16199;SDS011;8207;52.494;4.654;2023-04-06T02:13:50;16.90;;;12.10;;
16199;SDS011;8207;52.494;4.654;2023-04-06T02:16:17;14.07;;;10.53;;
16199;SDS011;8207;52.494;4.654;2023-04-06T02:18:44;17.40;;;11.27;;
16199;SDS011;8207;52.494;4.654;2023-04-06T02:21:11;18.47;;;11.17;;
16199;SDS011;8207;52.494;4.654;2023-04-06T02:23:38;16.90;;;11.60;;
16199;SDS011;8207;52.494;4.654;2023-04-06T02:26:05;16.37;;;10.73;;
16199;SDS011;8207;52.494;4.654;2023-04-06T02:28:32;13.63;;;10.07;;
16199;SDS011;8207;52.494;4.654;2023-04-06T02:31:00;13.23;;;9.83;;
16199;SDS011;8207;52.494;4.654;2023-04-06T02:33:27;13.20;;;9.77;;
16199;SDS011;8207;52.494;4.654;2023-04-06T02:35:54;16.30;;;10.17;;
16199;SDS011;8207;52.494;4.654;2023-04-06T02:38:21;15.93;;;10.57;;
16199;SDS011;8207;52.494;4.654;2023-04-06T02:40:48;14.07;;;9.77;;
16199;SDS011;8207;52.494;4.654;2023-04-06T02:43:15;11.10;;;8.73;;
16199;SDS011;8207;52.494;4.654;2023-04-06T02:45:42;15.87;;;10.40;;
16199;SDS011;8207;52.494;4.654;2023-04-06T02:48:10;14.57;;;9.43;;
16199;SDS011;8207;52.494;4.654;2023-04-06T02:50:37;14.03;;;9.37;;
16199;SDS011;8207;52.494;4.654;2023-04-06T02:53:04;15.13;;;9.80;;
16199;SDS011;8207;52.494;4.654;2023-04-06T02:55:31;12.40;;;9.37;;
16199;SDS011;8207;52.494;4.654;2023-04-06T02:57:58;13.40;;;9.30;;
16199;SDS011;8207;52.494;4.654;2023-04-06T03:00:25;16.90;;;9.97;;
16199;SDS011;8207;52.494;4.654;2023-04-06T03:02:51;14.27;;;9.77;;
16199;SDS011;8207;52.494;4.654;2023-04-06T03:05:20;16.97;;;10.43;;
16199;SDS011;8207;52.494;4.654;2023-04-06T03:07:47;17.63;;;10.40;;
16199;SDS011;8207;52.494;4.654;2023-04-06T03:10:14;13.80;;;9.40;;
16199;SDS011;8207;52.494;4.654;2023-04-06T03:12:41;14.03;;;9.80;;
16199;SDS011;8207;52.494;4.654;2023-04-06T03:15:09;14.77;;;10.17;;
16199;SDS011;8207;52.494;4.654;2023-04-06T03:17:36;14.90;;;9.43;;
16199;SDS011;8207;52.494;4.654;2023-04-06T03:20:03;19.27;;;11.13;;
16199;SDS011;8207;52.494;4.654;2023-04-06T03:22:32;15.00;;;10.10;;
16199;SDS011;8207;52.494;4.654;2023-04-06T03:24:59;13.67;;;10.40;;
16199;SDS011;8207;52.494;4.654;2023-04-06T03:27:26;12.67;;;9.63;;
16199;SDS011;8207;52.494;4.654;2023-04-06T03:29:53;13.20;;;9.73;;
16199;SDS011;8207;52.494;4.654;2023-04-06T03:32:20;12.93;;;9.20;;
16199;SDS011;8207;52.494;4.654;2023-04-06T03:34:47;15.40;;;9.50;;
16199;SDS011;8207;52.494;4.654;2023-04-06T03:37:15;13.97;;;9.63;;
16199;SDS011;8207;52.494;4.654;2023-04-06T03:39:43;17.57;;;11.00;;
16199;SDS011;8207;52.494;4.654;2023-04-06T03:42:10;17.90;;;10.33;;
16199;SDS011;8207;52.494;4.654;2023-04-06T03:44:40;14.87;;;9.93;;
16199;SDS011;8207;52.494;4.654;2023-04-06T03:47:07;15.70;;;10.43;;
16199;SDS011;8207;52.494;4.654;2023-04-06T03:49:33;14.90;;;10.30;;
16199;SDS011;8207;52.494;4.654;2023-04-06T03:52:00;15.00;;;10.33;;
16199;SDS011;8207;52.494;4.654;2023-04-06T03:54:28;13.77;;;9.97;;
16199;SDS011;8207;52.494;4.654;2023-04-06T03:56:56;17.17;;;11.17;;
16199;SDS011;8207;52.494;4.654;2023-04-06T03:59:23;14.97;;;11.17;;
16199;SDS011;8207;52.494;4.654;2023-04-06T04:01:50;17.47;;;11.10;;
16199;SDS011;8207;52.494;4.654;2023-04-06T04:04:17;14.20;;;10.43;;
16199;SDS011;8207;52.494;4.654;2023-04-06T04:06:44;15.13;;;10.90;;
16199;SDS011;8207;52.494;4.654;2023-04-06T04:09:10;12.03;;;9.40;;
16199;SDS011;8207;52.494;4.654;2023-04-06T04:11:37;14.73;;;10.53;;
16199;SDS011;8207;52.494;4.654;2023-04-06T04:14:06;15.50;;;10.70;;
16199;SDS011;8207;52.494;4.654;2023-04-06T04:16:32;13.60;;;10.40;;
16199;SDS011;8207;52.494;4.654;2023-04-06T04:18:59;14.97;;;10.53;;
16199;SDS011;8207;52.494;4.654;2023-04-06T04:21:28;17.50;;;10.57;;
16199;SDS011;8207;52.494;4.654;2023-04-06T04:23:56;15.73;;;10.93;;
16199;SDS011;8207;52.494;4.654;2023-04-06T04:26:23;16.17;;;10.93;;
16199;SDS011;8207;52.494;4.654;2023-04-06T04:28:50;17.80;;;11.80;;
16199;SDS011;8207;52.494;4.654;2023-04-06T04:31:18;16.07;;;11.63;;
16199;SDS011;8207;52.494;4.654;2023-04-06T04:33:47;15.77;;;10.80;;
16199;SDS011;8207;52.494;4.654;2023-04-06T04:36:14;15.83;;;10.87;;
16199;SDS011;8207;52.494;4.654;2023-04-06T04:38:41;15.27;;;10.87;;
16199;SDS011;8207;52.494;4.654;2023-04-06T04:41:08;16.40;;;11.23;;
16199;SDS011;8207;52.494;4.654;2023-04-06T04:43:35;14.43;;;10.47;;
16199;SDS011;8207;52.494;4.654;2023-04-06T04:46:02;15.57;;;11.07;;
16199;SDS011;8207;52.494;4.654;2023-04-06T04:48:30;15.13;;;10.73;;
16199;SDS011;8207;52.494;4.654;2023-04-06T04:50:57;16.10;;;10.50;;
16199;SDS011;8207;52.494;4.654;2023-04-06T04:53:24;20.93;;;12.10;;
16199;SDS011;8207;52.494;4.654;2023-04-06T04:55:51;18.03;;;12.00;;
16199;SDS011;8207;52.494;4.654;2023-04-06T04:58:18;15.90;;;12.07;;
16199;SDS011;8207;52.494;4.654;2023-04-06T05:00:45;19.13;;;11.83;;
16199;SDS011;8207;52.494;4.654;2023-04-06T05:03:20;18.80;;;12.53;;
16199;SDS011;8207;52.494;4.654;2023-04-06T05:05:50;18.73;;;11.10;;
16199;SDS011;8207;52.494;4.654;2023-04-06T05:08:17;18.90;;;12.67;;
16199;SDS011;8207;52.494;4.654;2023-04-06T05:10:44;21.40;;;12.50;;
16199;SDS011;8207;52.494;4.654;2023-04-06T05:13:11;17.83;;;12.50;;
16199;SDS011;8207;52.494;4.654;2023-04-06T05:15:38;19.60;;;13.07;;
16199;SDS011;8207;52.494;4.654;2023-04-06T05:18:05;16.93;;;12.40;;
16199;SDS011;8207;52.494;4.654;2023-04-06T05:20:32;16.47;;;11.77;;
16199;SDS011;8207;52.494;4.654;2023-04-06T05:23:01;23.27;;;13.70;;
16199;SDS011;8207;52.494;4.654;2023-04-06T05:25:28;22.10;;;13.77;;
16199;SDS011;8207;52.494;4.654;2023-04-06T05:27:55;20.27;;;13.40;;
16199;SDS011;8207;52.494;4.654;2023-04-06T05:30:22;21.47;;;14.13;;
16199;SDS011;8207;52.494;4.654;2023-04-06T05:32:49;19.47;;;13.93;;
16199;SDS011;8207;52.494;4.654;2023-04-06T05:35:16;21.10;;;14.13;;
16199;SDS011;8207;52.494;4.654;2023-04-06T05:37:43;20.73;;;13.43;;
16199;SDS011;8207;52.494;4.654;2023-04-06T05:40:11;21.43;;;13.43;;
16199;SDS011;8207;52.494;4.654;2023-04-06T05:42:38;20.33;;;13.47;;
16199;SDS011;8207;52.494;4.654;2023-04-06T05:45:06;22.07;;;14.60;;
16199;SDS011;8207;52.494;4.654;2023-04-06T05:47:33;21.87;;;14.17;;
16199;SDS011;8207;52.494;4.654;2023-04-06T05:50:00;22.57;;;14.50;;
16199;SDS011;8207;52.494;4.654;2023-04-06T05:52:27;21.57;;;13.93;;
16199;SDS011;8207;52.494;4.654;2023-04-06T05:54:54;24.73;;;13.90;;
16199;SDS011;8207;52.494;4.654;2023-04-06T05:57:22;18.97;;;13.80;;
16199;SDS011;8207;52.494;4.654;2023-04-06T05:59:49;20.93;;;14.07;;
16199;SDS011;8207;52.494;4.654;2023-04-06T06:02:16;22.70;;;14.97;;
16199;SDS011;8207;52.494;4.654;2023-04-06T06:04:43;23.50;;;15.17;;
16199;SDS011;8207;52.494;4.654;2023-04-06T06:07:11;21.37;;;14.20;;
16199;SDS011;8207;52.494;4.654;2023-04-06T06:09:37;21.43;;;15.00;;
16199;SDS011;8207;52.494;4.654;2023-04-06T06:12:05;21.40;;;14.80;;
16199;SDS011;8207;52.494;4.654;2023-04-06T06:14:34;19.97;;;14.13;;
16199;SDS011;8207;52.494;4.654;2023-04-06T06:17:00;21.63;;;14.37;;
16199;SDS011;8207;52.494;4.654;2023-04-06T06:19:27;22.10;;;15.67;;
16199;SDS011;8207;52.494;4.654;2023-04-06T06:21:54;21.30;;;15.67;;
16199;SDS011;8207;52.494;4.654;2023-04-06T06:24:21;27.60;;;15.03;;
16199;SDS011;8207;52.494;4.654;2023-04-06T06:26:48;20.40;;;14.97;;
16199;SDS011;8207;52.494;4.654;2023-04-06T06:35:28;24.73;;;16.10;;
16199;SDS011;8207;52.494;4.654;2023-04-06T06:37:55;29.37;;;17.87;;
16199;SDS011;8207;52.494;4.654;2023-04-06T06:40:22;22.87;;;16.00;;
16199;SDS011;8207;52.494;4.654;2023-04-06T06:42:51;26.37;;;16.27;;
16199;SDS011;8207;52.494;4.654;2023-04-06T06:45:17;23.83;;;16.60;;
16199;SDS011;8207;52.494;4.654;2023-04-06T06:47:45;26.30;;;17.17;;
16199;SDS011;8207;52.494;4.654;2023-04-06T06:50:13;22.67;;;16.47;;
16199;SDS011;8207;52.494;4.654;2023-04-06T06:52:40;26.77;;;18.77;;
16199;SDS011;8207;52.494;4.654;2023-04-06T06:55:08;27.67;;;17.30;;
16199;SDS011;8207;52.494;4.654;2023-04-06T06:57:35;22.63;;;15.63;;
16199;SDS011;8207;52.494;4.654;2023-04-06T07:00:03;26.67;;;18.63;;
16199;SDS011;8207;52.494;4.654;2023-04-06T07:02:33;23.50;;;16.77;;
16199;SDS011;8207;52.494;4.654;2023-04-06T07:05:01;26.80;;;18.00;;
16199;SDS011;8207;52.494;4.654;2023-04-06T07:07:31;25.03;;;18.03;;
16199;SDS011;8207;52.494;4.654;2023-04-06T07:09:58;25.10;;;17.63;;
16199;SDS011;8207;52.494;4.654;2023-04-06T07:12:25;29.30;;;18.77;;
16199;SDS011;8207;52.494;4.654;2023-04-06T07:14:53;27.17;;;18.83;;
16199;SDS011;8207;52.494;4.654;2023-04-06T07:17:20;38.73;;;19.27;;
16199;SDS011;8207;52.494;4.654;2023-04-06T07:19:47;26.77;;;18.50;;
16199;SDS011;8207;52.494;4.654;2023-04-06T07:22:14;29.13;;;18.33;;
16199;SDS011;8207;52.494;4.654;2023-04-06T07:24:42;32.63;;;20.27;;
16199;SDS011;8207;52.494;4.654;2023-04-06T07:27:09;32.27;;;21.20;;
16199;SDS011;8207;52.494;4.654;2023-04-06T07:29:36;30.80;;;19.93;;
16199;SDS011;8207;52.494;4.654;2023-04-06T07:32:03;33.13;;;22.30;;
16199;SDS011;8207;52.494;4.654;2023-04-06T07:34:30;30.47;;;20.83;;
16199;SDS011;8207;52.494;4.654;2023-04-06T07:36:58;34.63;;;23.07;;
16199;SDS011;8207;52.494;4.654;2023-04-06T07:39:26;38.73;;;23.33;;
16199;SDS011;8207;52.494;4.654;2023-04-06T07:41:54;37.63;;;23.90;;
16199;SDS011;8207;52.494;4.654;2023-04-06T07:44:21;31.83;;;23.27;;
16199;SDS011;8207;52.494;4.654;2023-04-06T07:46:48;31.80;;;22.67;;
16199;SDS011;8207;52.494;4.654;2023-04-06T07:49:15;39.30;;;23.93;;
16199;SDS011;8207;52.494;4.654;2023-04-06T07:51:42;38.33;;;23.47;;
16199;SDS011;8207;52.494;4.654;2023-04-06T07:54:09;34.50;;;23.60;;
16199;SDS011;8207;52.494;4.654;2023-04-06T07:56:36;37.63;;;23.77;;
16199;SDS011;8207;52.494;4.654;2023-04-06T07:59:04;33.87;;;23.03;;
16199;SDS011;8207;52.494;4.654;2023-04-06T08:01:31;29.00;;;21.80;;
16199;SDS011;8207;52.494;4.654;2023-04-06T08:03:58;36.60;;;22.80;;
16199;SDS011;8207;52.494;4.654;2023-04-06T08:06:27;32.50;;;21.33;;
16199;SDS011;8207;52.494;4.654;2023-04-06T08:08:54;31.00;;;22.20;;
16199;SDS011;8207;52.494;4.654;2023-04-06T08:11:21;33.50;;;22.93;;
16199;SDS011;8207;52.494;4.654;2023-04-06T08:13:48;29.43;;;21.37;;
16199;SDS011;8207;52.494;4.654;2023-04-06T08:16:16;30.50;;;22.03;;
16199;SDS011;8207;52.494;4.654;2023-04-06T08:18:44;33.50;;;22.37;;
16199;SDS011;8207;52.494;4.654;2023-04-06T08:21:11;30.93;;;21.83;;
16199;SDS011;8207;52.494;4.654;2023-04-06T08:23:38;29.50;;;21.43;;
16199;SDS011;8207;52.494;4.654;2023-04-06T08:26:05;31.23;;;21.40;;
16199;SDS011;8207;52.494;4.654;2023-04-06T08:28:32;30.27;;;22.10;;
16199;SDS011;8207;52.494;4.654;2023-04-06T08:31:02;31.83;;;23.13;;
16199;SDS011;8207;52.494;4.654;2023-04-06T08:33:32;28.67;;;21.80;;
16199;SDS011;8207;52.494;4.654;2023-04-06T08:36:06;31.03;;;21.73;;
16199;SDS011;8207;52.494;4.654;2023-04-06T08:38:33;30.43;;;20.90;;
16199;SDS011;8207;52.494;4.654;2023-04-06T08:41:06;30.43;;;21.90;;
16199;SDS011;8207;52.494;4.654;2023-04-06T08:43:34;26.63;;;20.13;;
16199;SDS011;8207;52.494;4.654;2023-04-06T08:46:07;31.93;;;21.37;;
16199;SDS011;8207;52.494;4.654;2023-04-06T08:48:36;32.57;;;21.33;;
16199;SDS011;8207;52.494;4.654;2023-04-06T08:51:04;33.33;;;21.57;;
16199;SDS011;8207;52.494;4.654;2023-04-06T08:53:32;33.10;;;22.10;;
16199;SDS011;8207;52.494;4.654;2023-04-06T08:55:59;26.87;;;20.47;;
16199;SDS011;8207;52.494;4.654;2023-04-06T08:58:27;30.07;;;21.27;;
16199;SDS011;8207;52.494;4.654;2023-04-06T09:01:00;28.00;;;20.10;;
16199;SDS011;8207;52.494;4.654;2023-04-06T09:03:28;30.40;;;20.23;;
16199;SDS011;8207;52.494;4.654;2023-04-06T09:05:59;28.73;;;20.23;;
16199;SDS011;8207;52.494;4.654;2023-04-06T09:08:26;28.00;;;20.77;;
16199;SDS011;8207;52.494;4.654;2023-04-06T09:10:52;27.33;;;21.43;;
16199;SDS011;8207;52.494;4.654;2023-04-06T09:13:19;32.20;;;20.50;;
16199;SDS011;8207;52.494;4.654;2023-04-06T09:15:46;28.37;;;20.93;;
16199;SDS011;8207;52.494;4.654;2023-04-06T09:18:27;28.57;;;19.90;;
16199;SDS011;8207;52.494;4.654;2023-04-06T09:21:01;28.53;;;20.67;;
16199;SDS011;8207;52.494;4.654;2023-04-06T09:23:29;31.50;;;21.17;;
16199;SDS011;8207;52.494;4.654;2023-04-06T09:26:06;29.13;;;21.17;;
16199;SDS011;8207;52.494;4.654;2023-04-06T09:28:44;28.67;;;20.83;;
16199;SDS011;8207;52.494;4.654;2023-04-06T09:31:11;31.20;;;21.57;;
16199;SDS011;8207;52.494;4.654;2023-04-06T09:33:40;32.53;;;20.87;;
16199;SDS011;8207;52.494;4.654;2023-04-06T09:36:10;30.37;;;22.17;;
16199;SDS011;8207;52.494;4.654;2023-04-06T09:38:50;29.27;;;22.47;;
16199;SDS011;8207;52.494;4.654;2023-04-06T09:41:20;30.20;;;21.60;;
16199;SDS011;8207;52.494;4.654;2023-04-06T09:43:49;37.20;;;24.37;;
16199;SDS011;8207;52.494;4.654;2023-04-06T09:46:16;32.80;;;21.43;;
16199;SDS011;8207;52.494;4.654;2023-04-06T09:48:46;31.93;;;22.27;;
16199;SDS011;8207;52.494;4.654;2023-04-06T09:51:16;30.63;;;21.63;;
16199;SDS011;8207;52.494;4.654;2023-04-06T09:53:45;33.47;;;22.07;;
16199;SDS011;8207;52.494;4.654;2023-04-06T09:56:18;33.60;;;22.53;;
16199;SDS011;8207;52.494;4.654;2023-04-06T09:58:50;29.87;;;21.33;;
16199;SDS011;8207;52.494;4.654;2023-04-06T10:01:21;26.23;;;19.93;;
16199;SDS011;8207;52.494;4.654;2023-04-06T10:03:52;27.83;;;20.43;;
16199;SDS011;8207;52.494;4.654;2023-04-06T10:06:24;25.53;;;18.93;;
16199;SDS011;8207;52.494;4.654;2023-04-06T10:08:54;22.97;;;15.63;;
16199;SDS011;8207;52.494;4.654;2023-04-06T10:11:23;21.13;;;15.97;;
16199;SDS011;8207;52.494;4.654;2023-04-06T10:13:50;23.77;;;15.40;;
16199;SDS011;8207;52.494;4.654;2023-04-06T10:16:17;19.70;;;15.23;;
16199;SDS011;8207;52.494;4.654;2023-04-06T10:18:46;19.17;;;13.30;;
16199;SDS011;8207;52.494;4.654;2023-04-06T10:21:16;19.20;;;13.00;;
16199;SDS011;8207;52.494;4.654;2023-04-06T10:23:49;18.17;;;12.60;;
16199;SDS011;8207;52.494;4.654;2023-04-06T10:26:19;15.47;;;11.43;;
16199;SDS011;8207;52.494;4.654;2023-04-06T10:28:47;16.90;;;11.20;;
16199;SDS011;8207;52.494;4.654;2023-04-06T10:31:15;15.37;;;10.60;;
16199;SDS011;8207;52.494;4.654;2023-04-06T10:33:53;13.57;;;9.10;;
16199;SDS011;8207;52.494;4.654;2023-04-06T10:36:22;11.03;;;8.67;;
16199;SDS011;8207;52.494;4.654;2023-04-06T10:38:55;12.73;;;9.47;;
16199;SDS011;8207;52.494;4.654;2023-04-06T10:41:24;15.20;;;10.20;;
16199;SDS011;8207;52.494;4.654;2023-04-06T10:43:57;15.83;;;9.80;;
16199;SDS011;8207;52.494;4.654;2023-04-06T10:46:26;14.67;;;10.13;;
16199;SDS011;8207;52.494;4.654;2023-04-06T10:48:54;13.37;;;9.50;;
16199;SDS011;8207;52.494;4.654;2023-04-06T10:51:24;12.40;;;9.00;;
16199;SDS011;8207;52.494;4.654;2023-04-06T10:53:55;14.27;;;9.67;;
16199;SDS011;8207;52.494;4.654;2023-04-06T10:56:23;17.77;;;10.07;;
16199;SDS011;8207;52.494;4.654;2023-04-06T10:58:53;17.40;;;10.83;;
16199;SDS011;8207;52.494;4.654;2023-04-06T11:01:22;13.80;;;9.90;;
16199;SDS011;8207;52.494;4.654;2023-04-06T11:03:51;13.67;;;9.90;;
16199;SDS011;8207;52.494;4.654;2023-04-06T11:06:20;13.07;;;9.60;;
16199;SDS011;8207;52.494;4.654;2023-04-06T11:08:48;11.30;;;8.57;;
16199;SDS011;8207;52.494;4.654;2023-04-06T11:11:17;11.63;;;8.23;;
16199;SDS011;8207;52.494;4.654;2023-04-06T11:13:45;12.17;;;8.67;;
16199;SDS011;8207;52.494;4.654;2023-04-06T11:16:14;12.33;;;8.90;;
16199;SDS011;8207;52.494;4.654;2023-04-06T11:18:48;14.60;;;9.67;;
16199;SDS011;8207;52.494;4.654;2023-04-06T11:21:17;13.43;;;9.10;;
16199;SDS011;8207;52.494;4.654;2023-04-06T11:23:44;11.73;;;9.40;;
16199;SDS011;8207;52.494;4.654;2023-04-06T11:26:11;12.00;;;9.63;;
16199;SDS011;8207;52.494;4.654;2023-04-06T11:28:40;13.20;;;9.53;;
16199;SDS011;8207;52.494;4.654;2023-04-06T11:31:08;16.10;;;9.93;;
16199;SDS011;8207;52.494;4.654;2023-04-06T11:33:35;12.73;;;9.43;;
16199;SDS011;8207;52.494;4.654;2023-04-06T11:36:03;12.17;;;9.47;;
16199;SDS011;8207;52.494;4.654;2023-04-06T11:38:31;13.97;;;9.77;;
16199;SDS011;8207;52.494;4.654;2023-04-06T11:40:58;11.70;;;10.07;;
16199;SDS011;8207;52.494;4.654;2023-04-06T11:43:28;12.93;;;10.40;;
16199;SDS011;8207;52.494;4.654;2023-04-06T11:46:03;13.23;;;10.30;;
16199;SDS011;8207;52.494;4.654;2023-04-06T11:48:31;12.80;;;10.43;;
16199;SDS011;8207;52.494;4.654;2023-04-06T11:50:58;11.43;;;10.00;;
16199;SDS011;8207;52.494;4.654;2023-04-06T11:53:27;12.93;;;10.50;;
16199;SDS011;8207;52.494;4.654;2023-04-06T11:55:54;11.03;;;9.33;;
16199;SDS011;8207;52.494;4.654;2023-04-06T11:58:21;13.87;;;9.17;;
16199;SDS011;8207;52.494;4.654;2023-04-06T12:00:48;11.37;;;9.47;;
16199;SDS011;8207;52.494;4.654;2023-04-06T12:03:16;10.67;;;8.93;;
16199;SDS011;8207;52.494;4.654;2023-04-06T12:05:43;11.83;;;10.13;;
16199;SDS011;8207;52.494;4.654;2023-04-06T12:08:10;12.60;;;9.80;;
16199;SDS011;8207;52.494;4.654;2023-04-06T12:10:37;12.07;;;9.37;;
16199;SDS011;8207;52.494;4.654;2023-04-06T12:13:04;11.73;;;9.57;;
16199;SDS011;8207;52.494;4.654;2023-04-06T12:15:31;12.87;;;10.23;;
16199;SDS011;8207;52.494;4.654;2023-04-06T12:17:58;13.03;;;10.00;;
16199;SDS011;8207;52.494;4.654;2023-04-06T12:20:26;12.23;;;9.80;;
16199;SDS011;8207;52.494;4.654;2023-04-06T12:22:53;12.07;;;10.33;;
16199;SDS011;8207;52.494;4.654;2023-04-06T12:25:20;12.87;;;9.53;;
16199;SDS011;8207;52.494;4.654;2023-04-06T12:27:48;12.03;;;10.10;;
16199;SDS011;8207;52.494;4.654;2023-04-06T12:30:15;13.83;;;10.70;;
16199;SDS011;8207;52.494;4.654;2023-04-06T12:32:42;11.47;;;10.27;;
16199;SDS011;8207;52.494;4.654;2023-04-06T12:35:09;14.87;;;11.43;;
16199;SDS011;8207;52.494;4.654;2023-04-06T12:37:38;13.87;;;10.57;;
16199;SDS011;8207;52.494;4.654;2023-04-06T12:40:05;14.77;;;11.23;;
16199;SDS011;8207;52.494;4.654;2023-04-06T12:42:35;16.90;;;12.00;;
16199;SDS011;8207;52.494;4.654;2023-04-06T12:45:03;13.67;;;11.50;;
16199;SDS011;8207;52.494;4.654;2023-04-06T12:47:30;14.27;;;11.37;;
16199;SDS011;8207;52.494;4.654;2023-04-06T12:49:57;13.83;;;11.50;;
16199;SDS011;8207;52.494;4.654;2023-04-06T12:52:24;11.93;;;9.87;;
16199;SDS011;8207;52.494;4.654;2023-04-06T12:54:53;13.57;;;11.30;;
16199;SDS011;8207;52.494;4.654;2023-04-06T12:57:20;13.27;;;10.60;;
16199;SDS011;8207;52.494;4.654;2023-04-06T12:59:48;11.57;;;10.10;;
16199;SDS011;8207;52.494;4.654;2023-04-06T13:02:15;15.40;;;11.63;;
16199;SDS011;8207;52.494;4.654;2023-04-06T13:04:42;12.67;;;11.00;;
16199;SDS011;8207;52.494;4.654;2023-04-06T13:07:11;15.00;;;11.27;;
16199;SDS011;8207;52.494;4.654;2023-04-06T13:09:38;13.40;;;11.13;;
16199;SDS011;8207;52.494;4.654;2023-04-06T13:12:07;13.43;;;11.20;;
16199;SDS011;8207;52.494;4.654;2023-04-06T13:14:34;13.27;;;10.70;;
16199;SDS011;8207;52.494;4.654;2023-04-06T13:17:01;14.03;;;11.20;;
16199;SDS011;8207;52.494;4.654;2023-04-06T13:19:28;14.23;;;10.40;;
16199;SDS011;8207;52.494;4.654;2023-04-06T13:21:56;12.77;;;10.37;;
16199;SDS011;8207;52.494;4.654;2023-04-06T13:24:23;11.00;;;9.17;;
16199;SDS011;8207;52.494;4.654;2023-04-06T13:26:50;12.47;;;10.33;;
16199;SDS011;8207;52.494;4.654;2023-04-06T13:29:19;12.90;;;10.73;;
16199;SDS011;8207;52.494;4.654;2023-04-06T13:31:49;11.10;;;9.50;;
16199;SDS011;8207;52.494;4.654;2023-04-06T13:34:16;14.17;;;10.87;;
16199;SDS011;8207;52.494;4.654;2023-04-06T13:36:43;13.97;;;11.67;;
16199;SDS011;8207;52.494;4.654;2023-04-06T13:39:13;15.87;;;11.90;;
16199;SDS011;8207;52.494;4.654;2023-04-06T13:41:40;18.67;;;12.03;;
16199;SDS011;8207;52.494;4.654;2023-04-06T13:44:07;13.93;;;12.03;;
16199;SDS011;8207;52.494;4.654;2023-04-06T13:46:35;13.57;;;11.33;;
16199;SDS011;8207;52.494;4.654;2023-04-06T13:49:02;13.67;;;11.60;;
16199;SDS011;8207;52.494;4.654;2023-04-06T13:51:29;13.00;;;11.60;;
16199;SDS011;8207;52.494;4.654;2023-04-06T13:53:57;16.13;;;12.20;;
16199;SDS011;8207;52.494;4.654;2023-04-06T13:56:24;15.10;;;12.57;;
16199;SDS011;8207;52.494;4.654;2023-04-06T13:58:53;14.60;;;11.97;;
16199;SDS011;8207;52.494;4.654;2023-04-06T14:01:20;14.70;;;12.47;;
16199;SDS011;8207;52.494;4.654;2023-04-06T14:03:49;17.50;;;12.50;;
16199;SDS011;8207;52.494;4.654;2023-04-06T14:06:16;13.43;;;11.97;;
16199;SDS011;8207;52.494;4.654;2023-04-06T14:08:43;17.17;;;11.60;;
16199;SDS011;8207;52.494;4.654;2023-04-06T14:11:10;14.93;;;11.60;;
16199;SDS011;8207;52.494;4.654;2023-04-06T14:13:38;13.40;;;11.93;;
16199;SDS011;8207;52.494;4.654;2023-04-06T14:16:05;14.83;;;11.93;;
16199;SDS011;8207;52.494;4.654;2023-04-06T14:18:33;15.70;;;11.77;;
16199;SDS011;8207;52.494;4.654;2023-04-06T14:21:01;15.43;;;12.80;;
16199;SDS011;8207;52.494;4.654;2023-04-06T14:23:28;18.17;;;13.50;;
16199;SDS011;8207;52.494;4.654;2023-04-06T14:26:04;15.13;;;12.83;;
16199;SDS011;8207;52.494;4.654;2023-04-06T14:28:32;16.30;;;12.27;;
16199;SDS011;8207;52.494;4.654;2023-04-06T14:30:59;14.30;;;12.67;;
16199;SDS011;8207;52.494;4.654;2023-04-06T14:33:28;15.07;;;12.60;;
16199;SDS011;8207;52.494;4.654;2023-04-06T14:35:56;13.77;;;12.03;;
16199;SDS011;8207;52.494;4.654;2023-04-06T14:38:24;14.23;;;12.17;;
16199;SDS011;8207;52.494;4.654;2023-04-06T14:40:51;12.73;;;11.07;;
16199;SDS011;8207;52.494;4.654;2023-04-06T14:43:20;13.50;;;11.53;;
16199;SDS011;8207;52.494;4.654;2023-04-06T14:45:47;14.23;;;11.93;;